Time;durP1;ratioP1;P1;durP2;ratioP2;P2;SDS_P1;SDS_P2;PMS_P1;PMS_P2;Temp;Humidity;BMP_temperature;BMP_pressure;BME280_temperature;BME280_humidity;BME280_pressure;Samples;Min_cycle;Max_cycle;Signal;HPM_P1;HPM_P2
2023/01/09 00:01:58;;;;;;;1.65;1.00;;;;;;;9.96;100.00;99052.75;5056662;28;20055;-74
2023/01/09 00:04:25;;;;;;;0.95;0.90;;;;;;;9.93;100.00;99059.13;5048458;28;20052;-75
2023/01/09 00:06:54;;;;;;;7.13;1.88;;;;;;;9.97;100.00;99049.53;5063283;28;20044;-75
2023/01/09 00:09:23;;;;;;;3.45;1.83;;;;;;;10.03;100.00;99056.06;5049684;28;20051;-77
2023/01/09 00:11:50;;;;;;;0.85;0.60;;;;;;;9.95;100.00;99051.16;5058152;28;20150;-76
2023/01/09 00:14:17;;;;;;;6.55;1.98;;;;;;;9.99;100.00;99054.63;5049281;28;20045;-74
2023/01/09 00:16:44;;;;;;;3.80;1.90;;;;;;;9.98;100.00;99047.53;5048284;28;20778;-75
2023/01/09 00:19:11;;;;;;;3.50;1.52;;;;;;;9.91;100.00;99045.75;5056485;28;20064;-75
2023/01/09 00:21:37;;;;;;;4.07;1.13;;;;;;;9.90;100.00;99054.47;5063192;28;20059;-74
2023/01/09 00:24:04;;;;;;;4.45;1.90;;;;;;;9.94;100.00;99058.69;5065094;28;20048;-75
2023/01/09 00:26:31;;;;;;;1.73;1.02;;;;;;;9.86;100.00;99056.53;5049706;28;20048;-75
2023/01/09 00:28:58;;;;;;;2.83;0.98;;;;;;;9.81;100.00;99062.56;5054481;28;20059;-74
2023/01/09 00:31:24;;;;;;;1.42;0.90;;;;;;;9.74;100.00;99054.44;5055090;28;20947;-76
2023/01/09 00:33:58;;;;;;;2.35;1.25;;;;;;;9.79;100.00;99051.94;5047740;28;20789;-78
2023/01/09 00:36:25;;;;;;;1.08;0.77;;;;;;;9.67;100.00;99074.75;5050859;28;20062;-74
2023/01/09 00:38:52;;;;;;;3.33;1.65;;;;;;;9.70;100.00;99054.56;5058195;28;20063;-75
2023/01/09 00:41:26;;;;;;;2.53;0.95;;;;;;;9.70;100.00;99071.13;5049022;28;20561;-75
2023/01/09 00:43:58;;;;;;;2.83;1.23;;;;;;;9.65;100.00;99063.34;5053378;28;20044;-73
2023/01/09 00:46:31;;;;;;;3.97;1.55;;;;;;;9.61;100.00;99059.88;5059118;28;20155;-76
2023/01/09 00:48:58;;;;;;;6.80;1.73;;;;;;;9.59;100.00;99061.53;5066277;28;20438;-74
2023/01/09 00:51:26;;;;;;;3.33;1.80;;;;;;;9.64;100.00;99056.28;5055399;28;20694;-75
2023/01/09 00:53:53;;;;;;;1.75;1.48;;;;;;;9.49;100.00;99057.78;5056337;28;20076;-73
2023/01/09 00:56:21;;;;;;;1.65;1.13;;;;;;;9.44;100.00;99052.00;5050296;28;20055;-77
2023/01/09 00:58:50;;;;;;;4.40;1.50;;;;;;;9.49;100.00;99059.78;5051224;28;20053;-76
2023/01/09 01:01:16;;;;;;;2.97;2.05;;;;;;;9.54;100.00;99057.28;5047220;28;20049;-76
2023/01/09 01:03:43;;;;;;;1.23;0.90;;;;;;;9.51;100.00;99060.91;5049879;28;20052;-74
2023/01/09 01:08:55;;;;;;;2.53;1.20;;;;;;;9.49;100.00;99066.06;5048078;28;20048;-74
2023/01/09 01:11:23;;;;;;;1.83;1.20;;;;;;;9.51;100.00;99074.72;5049792;28;20090;-75
2023/01/09 01:13:49;;;;;;;0.73;0.63;;;;;;;9.44;100.00;99076.84;5050404;28;20061;-75
2023/01/09 01:16:17;;;;;;;2.10;1.00;;;;;;;9.34;100.00;99070.38;5057160;28;20566;-75
2023/01/09 01:18:44;;;;;;;1.33;0.75;;;;;;;9.32;100.00;99075.53;5051450;28;20151;-75
2023/01/09 01:21:12;;;;;;;1.40;0.90;;;;;;;9.34;100.00;99086.94;5050998;28;20573;-75
2023/01/09 01:23:39;;;;;;;2.45;1.20;;;;;;;9.33;100.00;99074.34;5047884;28;20054;-74
2023/01/09 01:26:08;;;;;;;2.17;0.77;;;;;;;9.30;100.00;99080.72;5049932;28;20043;-75
2023/01/09 01:28:35;;;;;;;5.90;1.25;;;;;;;9.28;100.00;99079.59;5052748;28;20714;-75
2023/01/09 01:31:02;;;;;;;1.33;1.23;;;;;;;9.10;100.00;99068.16;5050880;28;20055;-74
2023/01/09 01:33:30;;;;;;;3.70;0.82;;;;;;;9.12;100.00;99077.56;5052169;28;20052;-75
2023/01/09 01:36:05;;;;;;;1.27;0.70;;;;;;;9.11;100.00;99081.50;5062962;28;20056;-74
2023/01/09 01:38:32;;;;;;;;;;;;;;;9.15;100.00;99078.69;5057927;28;20044;-75
2023/01/09 01:40:59;;;;;;;1.75;0.88;;;;;;;9.08;100.00;99087.13;5051618;28;19924;-75
2023/01/09 01:43:25;;;;;;;2.55;0.70;;;;;;;9.16;100.00;99097.59;5055179;28;20048;-75
2023/01/09 01:45:52;;;;;;;0.93;0.68;;;;;;;9.10;100.00;99092.97;5056384;28;20040;-76
2023/01/09 01:48:29;;;;;;;4.80;1.25;;;;;;;9.03;100.00;99098.63;5049881;28;20056;-73
2023/01/09 01:51:04;;;;;;;1.85;1.30;;;;;;;9.05;100.00;99099.00;5050834;28;20419;-76
2023/01/09 01:53:38;;;;;;;4.53;1.75;;;;;;;9.06;100.00;99100.56;5045955;28;20059;-76
2023/01/09 01:56:13;;;;;;;1.10;0.85;;;;;;;9.12;100.00;99113.44;5053586;28;20036;-75
2023/01/09 01:58:54;;;;;;;5.68;1.95;;;;;;;9.11;100.00;99117.38;5055749;28;20059;-74
2023/01/09 02:01:23;;;;;;;2.33;0.90;;;;;;;9.09;100.00;99119.81;5066332;28;20517;-73
2023/01/09 02:03:52;;;;;;;2.15;1.55;;;;;;;9.24;100.00;99112.78;5049543;28;20052;-73
2023/01/09 02:06:18;;;;;;;1.58;1.00;;;;;;;9.16;100.00;99114.13;5055867;28;20040;-74
2023/01/09 02:08:45;;;;;;;2.78;1.08;;;;;;;9.21;100.00;99113.63;5048789;28;20052;-76
2023/01/09 02:11:13;;;;;;;1.20;1.10;;;;;;;9.12;100.00;99123.69;5046924;28;20045;-74
2023/01/09 02:13:41;;;;;;;1.80;0.98;;;;;;;9.15;100.00;99123.59;5048736;28;20676;-74
2023/01/09 02:16:20;;;;;;;2.53;1.25;;;;;;;9.05;100.00;99115.56;5054703;28;20808;-74
2023/01/09 02:19:05;;;;;;;1.35;1.20;;;;;;;9.13;100.00;99128.78;5053347;28;20802;-74
2023/01/09 02:21:44;;;;;;;0.40;0.40;;;;;;;9.14;100.00;99119.28;5052915;28;20054;-75
2023/01/09 02:24:27;;;;;;;0.65;0.57;;;;;;;9.07;100.00;99124.97;5053320;28;20093;-74
2023/01/09 02:27:11;;;;;;;3.30;1.75;;;;;;;9.03;100.00;99127.00;5053386;28;20044;-75
2023/01/09 02:29:56;;;;;;;4.82;1.73;;;;;;;9.05;100.00;99129.34;5052931;28;20659;-73
2023/01/09 02:32:43;;;;;;;4.47;0.65;;;;;;;8.96;100.00;99127.16;5046650;28;20052;-75
2023/01/09 02:35:28;;;;;;;2.30;1.20;;;;;;;9.07;100.00;99127.72;5050313;28;20052;-74
2023/01/09 02:38:13;;;;;;;2.65;0.93;;;;;;;9.06;100.00;99139.97;5046810;28;20083;-74
2023/01/09 02:40:52;;;;;;;4.07;1.67;;;;;;;9.01;100.00;99129.41;5052715;28;20086;-74
2023/01/09 02:43:19;;;;;;;3.28;1.27;;;;;;;9.01;100.00;99129.41;5055387;28;20051;-74
2023/01/09 02:45:45;;;;;;;1.60;0.80;;;;;;;8.95;100.00;99127.56;5051267;28;20056;-73
2023/01/09 02:48:12;;;;;;;0.30;0.30;;;;;;;8.93;100.00;99132.72;5053295;28;20055;-74
2023/01/09 02:51:12;;;;;;;1.75;1.13;;;;;;;8.92;100.00;99112.66;5055736;28;20497;-74
2023/01/09 02:53:53;;;;;;;1.20;0.75;;;;;;;8.84;100.00;99125.03;5061751;28;20051;-75
2023/01/09 02:56:30;;;;;;;2.75;0.90;;;;;;;8.95;100.00;99114.56;5050445;28;20044;-73
2023/01/09 02:59:19;;;;;;;2.70;1.38;;;;;;;8.98;100.00;99119.22;5064590;28;20044;-73
2023/01/09 03:02:18;;;;;;;2.10;1.38;;;;;;;8.84;100.00;99125.03;5067600;28;20044;-74
2023/01/09 03:04:58;;;;;;;0.50;0.50;;;;;;;8.91;100.00;99137.91;5067491;28;20064;-73
2023/01/09 03:07:34;;;;;;;3.13;1.45;;;;;;;8.99;100.00;99128.28;5068243;28;20044;-73
2023/01/09 03:10:25;;;;;;;2.10;1.10;;;;;;;8.89;100.00;99134.78;5069119;28;20049;-71
2023/01/09 03:12:53;;;;;;;7.80;1.65;;;;;;;8.95;100.00;99131.13;5066937;28;20781;-75
2023/01/09 03:15:25;;;;;;;0.60;0.60;;;;;;;8.89;100.00;99132.81;5068847;28;20140;-76
2023/01/09 03:17:53;;;;;;;4.47;1.48;;;;;;;8.96;100.00;99135.44;5067472;28;20062;-71
2023/01/09 03:20:23;;;;;;;0.80;0.70;;;;;;;8.91;100.00;99144.19;5071841;28;20049;-73
2023/01/09 03:22:58;;;;;;;5.43;1.75;;;;;;;8.93;100.00;99143.75;5069013;28;20067;-74
2023/01/09 03:25:26;;;;;;;3.78;1.40;;;;;;;8.98;100.00;99152.31;5072071;28;20059;-74
2023/01/09 03:27:59;;;;;;;3.17;0.80;;;;;;;8.94;100.00;99151.63;5066740;28;20145;-74
2023/01/09 03:30:27;;;;;;;8.43;2.38;;;;;;;9.03;100.00;99167.59;5076106;28;20060;-75
2023/01/09 03:32:55;;;;;;;9.93;2.53;;;;;;;9.02;100.00;99168.81;5067300;28;20085;-73
2023/01/09 03:35:22;;;;;;;3.58;1.67;;;;;;;8.85;100.00;99176.22;5068653;28;20052;-73
2023/01/09 03:37:50;;;;;;;7.85;2.55;;;;;;;8.91;100.00;99182.81;5070538;28;20044;-73
2023/01/09 03:40:18;;;;;;;4.40;2.00;;;;;;;8.96;100.00;99182.31;5072113;28;20129;-74
2023/01/09 03:42:45;;;;;;;2.47;1.08;;;;;;;8.92;100.00;99189.91;5078797;28;20139;-76
2023/01/09 03:45:13;;;;;;;5.05;2.53;;;;;;;8.96;100.00;99198.09;5071325;28;20127;-74
2023/01/09 03:47:40;;;;;;;3.30;1.65;;;;;;;8.92;100.00;99189.91;5071995;28;20060;-74
2023/01/09 03:50:07;;;;;;;3.40;2.00;;;;;;;8.96;100.00;99192.56;5072704;28;20048;-74
2023/01/09 03:52:34;;;;;;;2.75;1.58;;;;;;;8.97;100.00;99189.38;5070824;28;20669;-73
2023/01/09 03:55:01;;;;;;;3.17;1.90;;;;;;;8.90;100.00;99197.00;5070232;28;20422;-74
2023/01/09 03:57:28;;;;;;;8.25;2.40;;;;;;;9.01;100.00;99183.81;5071042;28;20045;-74
2023/01/09 03:59:54;;;;;;;7.60;3.03;;;;;;;8.91;100.00;99193.81;5070867;28;20052;-73
2023/01/09 04:02:21;;;;;;;3.55;1.75;;;;;;;8.92;100.00;99191.88;5068714;28;20086;-74
2023/01/09 04:04:47;;;;;;;3.25;1.70;;;;;;;8.95;100.00;99200.09;5072424;28;20054;-73
2023/01/09 04:07:14;;;;;;;4.82;1.85;;;;;;;8.81;100.00;99196.81;5070458;28;20041;-73
2023/01/09 04:09:40;;;;;;;8.20;1.90;;;;;;;8.97;100.00;99203.19;5085785;28;20086;-73
2023/01/09 04:12:07;;;;;;;6.40;1.70;;;;;;;8.84;100.00;99201.47;5070694;28;20048;-72
2023/01/09 04:14:33;;;;;;;3.83;1.38;;;;;;;8.93;100.00;99204.44;5069798;28;20048;-73
2023/01/09 04:17:00;;;;;;;4.32;1.88;;;;;;;8.84;100.00;99207.75;5070094;28;20048;-73
2023/01/09 04:19:26;;;;;;;4.40;1.85;;;;;;;8.88;100.00;99211.22;5077605;28;20512;-74
2023/01/09 04:21:53;;;;;;;3.22;1.15;;;;;;;8.87;100.00;99200.63;5076568;28;20049;-74
2023/01/09 04:24:19;;;;;;;3.63;1.85;;;;;;;8.89;100.00;99212.78;5069994;28;20044;-74
2023/01/09 04:26:45;;;;;;;9.10;2.90;;;;;;;8.80;100.00;99220.03;5070845;28;20049;-74
2023/01/09 04:29:12;;;;;;;1.92;1.35;;;;;;;8.80;100.00;99207.03;5073688;28;20044;-73
2023/01/09 04:31:38;;;;;;;4.57;1.55;;;;;;;8.77;100.00;99213.41;5069990;28;20053;-73
2023/01/09 04:34:05;;;;;;;10.70;3.10;;;;;;;8.75;100.00;99207.53;5075647;28;20051;-74
2023/01/09 04:36:34;;;;;;;4.45;1.73;;;;;;;8.65;100.00;99218.75;5074437;28;20044;-75
2023/01/09 04:39:01;;;;;;;7.55;2.75;;;;;;;8.62;100.00;99219.56;5077691;28;20046;-75
2023/01/09 04:44:12;;;;;;;4.05;1.90;;;;;;;8.52;100.00;99224.09;5070018;28;20051;-73
2023/01/09 04:46:39;;;;;;;3.28;1.48;;;;;;;8.46;100.00;99220.22;5077188;28;20144;-75
2023/01/09 04:49:05;;;;;;;2.40;1.27;;;;;;;8.33;100.00;99216.50;5077630;28;20048;-75
2023/01/09 04:51:32;;;;;;;1.85;1.33;;;;;;;8.34;100.00;99217.28;5072963;28;20427;-75
2023/01/09 04:53:58;;;;;;;5.80;1.88;;;;;;;8.30;100.00;99219.34;5068861;28;20044;-75
2023/01/09 04:56:25;;;;;;;5.28;2.10;;;;;;;8.25;100.00;99230.81;5069796;28;20055;-74
2023/01/09 04:58:52;;;;;;;3.72;1.55;;;;;;;8.24;100.00;99226.50;5077796;28;20059;-74
2023/01/09 05:01:18;;;;;;;5.13;1.30;;;;;;;8.14;100.00;99235.69;5075516;28;20549;-74
2023/01/09 05:03:45;;;;;;;7.00;2.28;;;;;;;8.17;100.00;99229.34;5069499;28;20060;-73
2023/01/09 05:06:11;;;;;;;3.00;0.93;;;;;;;8.09;100.00;99245.19;5069379;28;20499;-73
2023/01/09 05:08:38;;;;;;;0.93;0.85;;;;;;;8.05;100.00;99247.22;5069343;28;20055;-74
2023/01/09 05:11:05;;;;;;;8.45;2.75;;;;;;;8.16;100.00;99247.06;5076734;28;20052;-72
2023/01/09 05:13:31;;;;;;;4.57;1.67;;;;;;;8.03;100.00;99252.34;5067907;28;20044;-74
2023/01/09 05:15:57;;;;;;;11.10;3.22;;;;;;;8.09;100.00;99253.44;5073440;28;20074;-73
2023/01/09 05:18:24;;;;;;;5.22;1.75;;;;;;;8.02;100.00;99259.06;5085067;28;20414;-74
2023/01/09 05:20:50;;;;;;;10.50;1.77;;;;;;;8.07;100.00;99259.38;5068746;28;20052;-74
2023/01/09 05:23:17;;;;;;;7.57;2.10;;;;;;;8.06;100.00;99259.03;5069174;28;20048;-76
2023/01/09 05:25:43;;;;;;;5.18;1.75;;;;;;;8.03;100.00;99266.91;5068942;28;20056;-73
2023/01/09 05:28:10;;;;;;;8.25;2.45;;;;;;;8.03;100.00;99266.13;5072141;28;20570;-74
2023/01/09 05:30:37;;;;;;;4.38;1.55;;;;;;;8.04;100.00;99267.69;5079569;28;20495;-74
2023/01/09 05:33:03;;;;;;;7.93;1.92;;;;;;;8.09;100.00;99260.94;5068547;28;20063;-75
2023/01/09 05:35:30;;;;;;;6.25;1.77;;;;;;;8.12;100.00;99262.84;5068778;28;20040;-74
2023/01/09 05:37:57;;;;;;;8.18;1.75;;;;;;;8.11;100.00;99270.34;5068776;28;20131;-74
2023/01/09 05:40:23;;;;;;;6.25;1.83;;;;;;;8.09;100.00;99264.47;5070843;28;20044;-75
2023/01/09 05:42:57;;;;;;;2.80;0.90;;;;;;;8.14;100.00;99268.75;5078792;28;20518;-74
2023/01/09 05:45:25;;;;;;;3.10;1.50;;;;;;;8.14;100.00;99263.22;5074329;28;20151;-73
2023/01/09 05:47:52;;;;;;;4.80;1.40;;;;;;;8.15;100.00;99265.56;5069529;28;20083;-73
2023/01/09 05:50:19;;;;;;;5.45;1.23;;;;;;;8.22;100.00;99264.69;5075689;28;20068;-73
2023/01/09 05:52:45;;;;;;;4.53;1.70;;;;;;;8.20;100.00;99267.09;5068455;28;20059;-72
2023/01/09 05:55:12;;;;;;;5.32;1.70;;;;;;;8.20;100.00;99258.81;5068777;28;20567;-73
2023/01/09 05:57:39;;;;;;;5.07;1.63;;;;;;;8.27;100.00;99256.00;5068705;28;20044;-75
2023/01/09 06:00:06;;;;;;;2.00;1.27;;;;;;;8.24;100.00;99254.84;5072697;28;20052;-73
2023/01/09 06:02:32;;;;;;;5.05;1.95;;;;;;;8.35;100.00;99262.94;5068456;28;20049;-74
2023/01/09 06:04:59;;;;;;;5.88;1.98;;;;;;;8.21;100.00;99263.91;5076317;28;20453;-74
2023/01/09 06:07:26;;;;;;;4.85;1.40;;;;;;;8.42;100.00;99257.31;5069703;28;20041;-73
2023/01/09 06:09:52;;;;;;;5.50;1.35;;;;;;;8.34;100.00;99264.13;5076119;28;20058;-75
2023/01/09 06:12:19;;;;;;;7.25;1.95;;;;;;;8.46;100.00;99250.56;5067770;28;20044;-74
2023/01/09 06:14:45;;;;;;;5.43;1.70;;;;;;;8.45;100.00;99249.00;5067902;28;20570;-72
2023/01/09 06:17:12;;;;;;;10.35;2.35;;;;;;;8.32;100.00;99258.25;5068369;28;20127;-75
2023/01/09 06:19:38;;;;;;;3.25;1.00;;;;;;;8.42;100.00;99255.34;5068636;28;20617;-74
2023/01/09 06:22:05;;;;;;;3.63;1.40;;;;;;;8.39;100.00;99267.22;5068925;28;20148;-74
2023/01/09 06:24:31;;;;;;;2.10;1.17;;;;;;;8.45;100.00;99257.28;5074563;28;20036;-74
2023/01/09 06:26:58;;;;;;;6.55;2.10;;;;;;;8.44;100.00;99266.72;5070468;28;20167;-74
2023/01/09 06:29:24;;;;;;;3.70;1.50;;;;;;;8.53;100.00;99264.22;5075192;28;20054;-72
2023/01/09 06:31:51;;;;;;;6.68;2.08;;;;;;;8.55;100.00;99267.34;5069294;28;20049;-75
2023/01/09 06:34:17;;;;;;;2.70;1.15;;;;;;;8.41;100.00;99281.34;5071392;28;20075;-75
2023/01/09 06:36:44;;;;;;;1.35;0.68;;;;;;;8.39;100.00;99264.44;5067933;28;20048;-73
2023/01/09 06:39:12;;;;;;;5.97;1.60;;;;;;;8.30;100.00;99271.69;5067112;28;20041;-74
2023/01/09 06:41:39;;;;;;;11.68;2.20;;;;;;;8.21;100.00;99269.41;5067860;28;20046;-73
2023/01/09 06:44:05;;;;;;;4.70;1.00;;;;;;;8.21;100.00;99274.94;5068752;28;20045;-74
2023/01/09 06:46:32;;;;;;;12.10;1.25;;;;;;;8.21;100.00;99274.94;5067193;28;20064;-74
2023/01/09 06:48:58;;;;;;;7.00;1.35;;;;;;;8.28;100.00;99274.84;5067539;28;20094;-73
2023/01/09 06:51:25;;;;;;;0.82;0.47;;;;;;;8.22;100.00;99276.50;5067840;28;20044;-75
2023/01/09 06:53:51;;;;;;;3.72;1.25;;;;;;;8.21;100.00;99269.41;5072452;28;20134;-74
2023/01/09 06:56:19;;;;;;;5.28;1.08;;;;;;;8.21;100.00;99280.44;5069430;28;20045;-74
2023/01/09 06:58:45;;;;;;;2.88;0.85;;;;;;;8.20;100.00;99275.34;5068626;28;20048;-74
2023/01/09 07:01:11;;;;;;;9.38;1.95;;;;;;;8.22;100.00;99268.25;5074621;28;20069;-73
2023/01/09 07:03:38;;;;;;;4.47;1.20;;;;;;;8.14;100.00;99271.50;5067570;28;20062;-74
2023/01/09 07:06:05;;;;;;;6.25;1.73;;;;;;;8.26;100.00;99277.25;5072528;28;20399;-74
2023/01/09 07:08:33;;;;;;;3.03;1.60;;;;;;;8.12;100.00;99277.41;5069492;28;20115;-74
2023/01/09 07:10:59;;;;;;;4.35;1.23;;;;;;;8.15;100.00;99276.59;5067165;28;20048;-75
2023/01/09 07:13:26;;;;;;;11.65;1.73;;;;;;;8.21;100.00;99268.63;5074591;28;20040;-73
2023/01/09 07:15:52;;;;;;;12.98;2.85;;;;;;;8.23;100.00;99272.56;5074940;28;20062;-73
2023/01/09 07:18:19;;;;;;;10.50;2.83;;;;;;;8.25;100.00;99270.19;5067396;28;20045;-74
2023/01/09 07:20:46;;;;;;;10.55;1.70;;;;;;;8.23;100.00;99274.56;5069370;28;20491;-74
2023/01/09 07:23:14;;;;;;;2.75;1.23;;;;;;;8.28;100.00;99280.38;5066304;28;20047;-74
2023/01/09 07:25:41;;;;;;;6.82;2.03;;;;;;;8.20;100.00;99281.63;5068308;28;20044;-73
2023/01/09 07:28:08;;;;;;;4.70;2.03;;;;;;;8.26;100.00;99277.25;5073326;28;20135;-74
2023/01/09 07:30:35;;;;;;;6.22;1.75;;;;;;;8.33;100.00;99270.84;5075771;28;20141;-73
2023/01/09 07:33:01;;;;;;;11.15;2.78;;;;;;;8.41;100.00;99280.56;5066204;28;20106;-73
2023/01/09 07:35:29;;;;;;;9.55;2.13;;;;;;;8.43;100.00;99278.94;5072233;28;20067;-74
2023/01/09 07:37:56;;;;;;;3.00;1.50;;;;;;;8.39;100.00;99269.16;5078071;28;20066;-74
2023/01/09 07:40:22;;;;;;;4.53;1.73;;;;;;;8.35;100.00;99274.75;5071848;28;20044;-74
2023/01/09 07:42:52;;;;;;;7.05;2.20;;;;;;;8.45;100.00;99273.03;5074240;28;20056;-73
2023/01/09 07:45:19;;;;;;;11.82;2.15;;;;;;;8.47;100.00;99276.91;5075294;28;20044;-73
2023/01/09 07:47:45;;;;;;;6.47;2.00;;;;;;;8.47;100.00;99282.44;5072947;28;20044;-74
2023/01/09 07:50:12;;;;;;;6.15;1.50;;;;;;;8.52;100.00;99276.44;5083248;28;20501;-73
2023/01/09 07:52:38;;;;;;;4.53;1.20;;;;;;;8.58;100.00;99272.03;5065649;28;20040;-74
2023/01/09 07:55:05;;;;;;;6.13;1.35;;;;;;;8.55;100.00;99286.66;5067029;28;20048;-74
2023/01/09 07:57:32;;;;;;;6.07;1.17;;;;;;;8.60;100.00;99290.91;5067082;28;20047;-73
2023/01/09 08:00:02;;;;;;;3.45;1.95;;;;;;;8.61;100.00;99284.94;5065856;28;20857;-74
2023/01/09 08:02:28;;;;;;;9.95;2.50;;;;;;;8.72;100.00;99276.53;5065107;28;20036;-74
2023/01/09 08:04:55;;;;;;;5.88;1.90;;;;;;;8.62;100.00;99278.25;5067085;28;20084;-73
2023/01/09 08:07:21;;;;;;;5.20;1.33;;;;;;;8.65;100.00;99291.22;5076283;28;20036;-74
2023/01/09 08:09:48;;;;;;;6.15;0.88;;;;;;;8.69;100.00;99286.41;5067622;28;20049;-73
2023/01/09 08:12:14;;;;;;;1.65;1.10;;;;;;;8.68;100.00;99295.91;5066283;28;20045;-74
2023/01/09 08:14:41;;;;;;;8.70;2.00;;;;;;;8.70;100.00;99293.47;5075493;28;20689;-76
2023/01/09 08:17:09;;;;;;;10.52;2.20;;;;;;;8.69;100.00;99294.69;5070405;28;20050;-73
2023/01/09 08:19:36;;;;;;;8.52;1.60;;;;;;;8.64;100.00;99297.91;5065950;28;20049;-73
2023/01/09 08:22:02;;;;;;;6.03;1.88;;;;;;;8.65;100.00;99301.44;5078529;28;20410;-74
2023/01/09 08:24:31;;;;;;;9.55;3.15;;;;;;;8.60;100.00;99308.22;5074889;28;20045;-74
2023/01/09 08:26:58;;;;;;;12.98;3.38;;;;;;;8.73;100.00;99298.16;5069990;28;20052;-74
2023/01/09 08:29:25;;;;;;;9.68;2.55;;;;;;;8.58;100.00;99294.09;5071043;28;20052;-75
2023/01/09 08:31:51;;;;;;;11.52;2.67;;;;;;;8.64;100.00;99297.91;5071577;28;20517;-75
2023/01/09 08:34:18;;;;;;;7.05;2.35;;;;;;;8.63;100.00;99298.31;5075216;28;20044;-71
2023/01/09 08:36:44;;;;;;;4.28;1.25;;;;;;;8.58;100.00;99304.31;5076349;28;20052;-75
2023/01/09 08:39:11;;;;;;;8.90;2.22;;;;;;;8.44;100.00;99302.53;5074462;28;20039;-77
2023/01/09 08:47:08;;;;;;;4.13;1.70;;;;;;;8.46;100.00;99296.63;5078176;28;20459;-74
2023/01/09 08:49:37;;;;;;;7.30;1.70;;;;;;;8.47;100.00;99292.69;5069264;28;20056;-74
2023/01/09 08:52:04;;;;;;;8.18;1.73;;;;;;;8.37;100.00;99310.91;5081664;28;20067;-75
2023/01/09 08:54:31;;;;;;;11.05;2.00;;;;;;;8.52;100.00;99301.25;5073325;28;20046;-74
2023/01/09 08:56:57;;;;;;;2.95;1.83;;;;;;;8.49;100.00;99312.34;5071769;28;20520;-74
2023/01/09 08:59:24;;;;;;;5.45;1.40;;;;;;;8.50;100.00;99317.44;5072888;28;20048;-73
2023/01/09 09:01:50;;;;;;;1.67;0.98;;;;;;;8.45;100.00;99319.88;5063992;28;20044;-74
2023/01/09 09:04:17;;;;;;;10.57;2.25;;;;;;;8.51;100.00;99318.22;5071138;28;20132;-74
2023/01/09 09:06:44;;;;;;;4.47;1.15;;;;;;;8.54;100.00;99326.41;5076834;28;20054;-74
2023/01/09 09:09:10;;;;;;;6.65;2.15;;;;;;;8.52;100.00;99314.25;5068086;28;20048;-75
2023/01/09 09:11:37;;;;;;;2.63;1.48;;;;;;;8.50;100.00;99328.44;5067910;28;20044;-75
2023/01/09 09:15:11;;;;;;;5.53;1.63;;;;;;;8.43;100.00;99334.06;5067774;28;20041;-78
2023/01/09 09:16:52;;;;;;;4.80;2.17;;;;;;;8.42;100.00;99327.00;5072173;28;20132;-76
2023/01/09 09:19:18;;;;;;;3.05;1.27;;;;;;;8.44;100.00;99335.63;5077716;28;20063;-77
2023/01/09 09:21:45;;;;;;;2.90;1.23;;;;;;;8.49;100.00;99339.91;5079179;28;20065;-73
2023/01/09 09:24:11;;;;;;;7.68;1.58;;;;;;;8.45;100.00;99336.41;5082781;28;20032;-74
2023/01/09 09:26:38;;;;;;;2.95;1.48;;;;;;;8.39;100.00;99343.56;5070888;28;20044;-75
2023/01/09 09:29:04;;;;;;;1.13;0.75;;;;;;;8.44;100.00;99332.09;5065376;28;20055;-75
2023/01/09 09:31:31;;;;;;;2.15;1.17;;;;;;;8.42;100.00;99332.53;5075581;28;20036;-74
2023/01/09 09:33:58;;;;;;;2.63;1.17;;;;;;;8.43;100.00;99345.09;5069744;28;20040;-74
2023/01/09 09:36:24;;;;;;;8.27;1.60;;;;;;;8.47;100.00;99336.78;5074661;28;20048;-74
2023/01/09 09:38:50;;;;;;;8.27;1.98;;;;;;;8.45;100.00;99339.97;5075654;28;20508;-73
2023/01/09 09:47:26;;;;;;;10.02;1.98;;;;;;;8.53;100.00;99357.16;5071244;28;20040;-73
2023/01/09 09:49:55;;;;;;;4.13;1.75;;;;;;;8.64;100.00;99355.81;5081476;28;20052;-74
2023/01/09 09:52:49;;;;;;;8.07;2.20;;;;;;;8.65;100.00;99370.38;5070212;28;20119;-74
2023/01/09 09:55:23;;;;;;;6.25;1.60;;;;;;;8.70;100.00;99367.94;5073597;28;20040;-73
2023/01/09 09:57:50;;;;;;;7.03;2.20;;;;;;;8.73;100.00;99367.09;5069991;28;20052;-74
2023/01/09 10:00:20;;;;;;;4.43;1.52;;;;;;;8.94;100.00;99377.78;5071719;28;20502;-72
2023/01/09 10:03:09;;;;;;;8.77;1.85;;;;;;;8.93;100.00;99375.47;5073000;28;20123;-73
2023/01/09 10:05:45;;;;;;;13.63;2.17;;;;;;;9.02;100.00;99386.75;5069747;28;20498;-73
2023/01/09 10:08:54;;;;;;;1.17;0.70;;;;;;;9.10;100.00;99394.50;5072102;28;20497;-71
2023/01/09 10:11:38;;;;;;;8.48;1.52;;;;;;;9.24;100.00;99385.19;5076499;28;20071;-73
2023/01/09 10:14:05;;;;;;;5.90;1.67;;;;;;;9.25;100.00;99387.53;5067391;28;20051;-73
2023/01/09 10:17:34;;;;;;;5.22;1.30;;;;;;;9.29;100.00;99382.75;5075198;28;20044;-74
2023/01/09 10:20:37;;;;;;;7.07;1.70;;;;;;;9.26;100.00;99383.59;5034862;28;20037;-75
2023/01/09 10:23:32;;;;;;;3.90;1.23;;;;;;;9.38;100.00;99380.22;5032098;28;20204;-73
2023/01/09 10:26:32;;;;;;;7.18;1.95;;;;;;;9.30;100.00;99375.25;5063515;28;20060;-74
2023/01/09 10:29:18;;;;;;;7.43;1.55;;;;;;;9.48;100.00;99367.41;5068280;28;20483;-73
2023/01/09 10:31:51;;;;;;;;;;;;;;;9.51;100.00;99364.59;5065875;28;20163;-74
2023/01/09 10:34:43;;;;;;;10.93;2.85;;;;;;;9.45;100.00;99374.56;5071774;28;20468;-73
2023/01/09 10:37:14;;;;;;;11.85;2.50;;;;;;;9.42;100.00;99375.41;5069634;28;20068;-73
2023/01/09 10:39:51;;;;;;;7.13;2.25;;;;;;;9.49;100.00;99369.75;5077815;28;20075;-74
2023/01/09 10:42:30;;;;;;;8.32;1.90;;;;;;;9.48;100.00;99378.44;5067275;28;20483;-74
2023/01/09 10:45:04;;;;;;;3.10;1.25;;;;;;;9.51;100.00;99386.69;5066774;28;20095;-74
2023/01/09 10:47:37;;;;;;;10.15;2.30;;;;;;;9.48;100.00;99401.34;5065711;28;20055;-72
2023/01/09 10:50:25;;;;;;;11.18;1.52;;;;;;;9.60;100.00;99386.13;5066358;28;20056;-74
2023/01/09 10:52:54;;;;;;;4.28;2.13;;;;;;;9.63;100.00;99396.34;5071220;28;20036;-74
2023/01/09 10:55:34;;;;;;;5.75;1.88;;;;;;;9.64;100.00;99400.66;5068852;28;20509;-74
2023/01/09 10:58:10;;;;;;;6.32;1.50;;;;;;;9.74;100.00;99411.53;5077734;28;20047;-74
2023/01/09 11:00:38;;;;;;;10.25;1.77;;;;;;;9.73;100.00;99398.91;5067597;28;20043;-74
2023/01/09 11:03:09;;;;;;;4.38;1.73;;;;;;;9.85;100.00;99394.72;5070882;28;20095;-74
2023/01/09 11:05:35;;;;;;;11.65;2.15;;;;;;;9.71;100.00;99395.00;5072629;28;20051;-75
2023/01/09 11:08:08;;;;;;;7.97;1.35;;;;;;;9.75;100.00;99392.94;5067076;28;20163;-72
2023/01/09 11:10:53;;;;;;;7.32;1.67;;;;;;;9.75;100.00;99399.25;5081510;28;20152;-73
2023/01/09 11:13:19;;;;;;;5.22;1.92;;;;;;;9.79;100.00;99399.97;5073436;28;20914;-74
2023/01/09 11:15:57;;;;;;;11.23;2.50;;;;;;;9.72;100.00;99399.34;5079392;28;20050;-73
2023/01/09 11:18:25;;;;;;;6.65;1.77;;;;;;;9.81;100.00;99400.34;5072585;28;20154;-75
2023/01/09 11:20:51;;;;;;;7.40;2.42;;;;;;;9.67;100.00;99422.69;5067133;28;20514;-74
2023/01/09 11:23:36;;;;;;;5.72;1.25;;;;;;;9.88;100.00;99402.97;5066152;28;20050;-75
2023/01/09 11:26:03;;;;;;;6.27;1.70;;;;;;;9.83;100.00;99400.69;5070365;28;20126;-73
2023/01/09 11:28:29;;;;;;;3.92;1.70;;;;;;;9.87;100.00;99411.66;5067111;28;20048;-73
2023/01/09 11:31:01;;;;;;;10.57;2.70;;;;;;;9.74;100.00;99400.47;5069710;28;20052;-75
2023/01/09 11:33:36;;;;;;;7.57;2.75;;;;;;;9.80;100.00;99404.31;5065402;28;20037;-76
2023/01/09 11:36:09;;;;;;;6.35;1.75;;;;;;;9.84;100.00;99407.78;5069377;28;20090;-74
2023/01/09 11:38:56;;;;;;;4.00;1.63;;;;;;;10.01;100.00;99406.66;5069446;28;20082;-74
2023/01/09 11:41:27;;;;;;;8.15;2.50;;;;;;;10.03;100.00;99404.22;5066676;28;20079;-74
2023/01/09 11:43:57;;;;;;;7.50;1.73;;;;;;;9.87;100.00;99418.00;5067010;28;20040;-74
2023/01/09 11:46:30;;;;;;;2.80;1.80;;;;;;;9.95;100.00;99422.16;5066308;28;20049;-74
2023/01/09 11:48:58;;;;;;;4.68;1.60;;;;;;;10.00;100.00;99426.44;5062874;28;20044;-73
2023/01/09 11:51:30;;;;;;;6.53;1.83;;;;;;;9.83;100.00;99433.81;5045724;28;20041;-74
2023/01/09 11:54:36;;;;;;;7.35;2.03;;;;;;;10.00;100.00;99434.72;5050269;28;20048;-74
2023/01/09 11:57:03;;;;;;;;;;;;;;;9.97;100.00;99454.91;5042602;28;20885;-75
2023/01/09 11:59:30;;;;;;;14.80;2.75;;;;;;;9.80;100.00;99448.50;5023479;28;19931;-75
2023/01/09 12:01:56;;;;;;;6.65;1.95;;;;;;;10.00;100.00;99463.09;5041733;28;20052;-76
2023/01/09 12:04:32;;;;;;;3.78;1.83;;;;;;;9.92;100.00;99481.03;5038666;28;20040;-77
2023/01/09 12:07:37;;;;;;;8.38;2.20;;;;;;;9.83;100.00;99457.94;5041680;28;20048;-77